Cape Hatteras, NC

4:58 PM EDT on September 01, 2015 (GMT -0400)
KNCBUXTO2 | | Change Station
CLOSE
Current Station
Personal Weather Station
Location: Buxton, NC
Elevation: 42 ft
Nearby Weather Stations

Elev 42 ft 35.26 °N, 75.53 °W | Updated 8 minutes ago

Overcast
Overcast
82.1 °F
Feels Like 90 °F
N
4.0
Wind Variable Wind from ENE

Today
High -- | Low -- °F
--% Chance of Precip.
Yesterday
High -- | Low -- °F
Precip. -- in
6:34 AM 7:29 PM
Waning Gibbous, 86% visible
Pressure 30.04 in
Visibility 10.0 miles
Clouds Mostly Cloudy 1800 ft
Mostly Cloudy 2900 ft
Overcast 4900 ft
Heat Index 90 °F
Dew Point 77 °F
Humidity 83%
Rainfall 0.04 in
Snow Depth Not available.
UV 1 out of 12
Pollen 8.70 out of 12
Air Quality Not available.
Flu Activity Not available.
METAR KHSE 012051Z AUTO 03005KT 10SM BKN018 BKN029 OVC049 27/23 A3004 RMK AO2 SLP171 T02720233 55006 TSNO
Pressure 30.04 in
Visibility 10.0 miles
Clouds Mostly Cloudy 1800 ft
Mostly Cloudy 2900 ft
Overcast 4900 ft
Heat Index 90 °F
Dew Point 77 °F
Humidity 83%
Rainfall 0.04 in
Snow Depth Not available.
UV 1 out of 12
Pollen 8.70 out of 12
Air Quality Not available.
Flu Activity Not available.
METAR KHSE 012051Z AUTO 03005KT 10SM BKN018 BKN029 OVC049 27/23 A3004 RMK AO2 SLP171 T02720233 55006 TSNO

10-Day Weather Forecast

×

Almanac

Astronomy

Sep. 01, 2015 Rise Set
Actual Time
Civil Twilight
Nautical Twilight
Astronomical Twilight
Moon
Length of Visible Light
Length of Day
Tomorrow will be .
, % of the Moon is Illuminated

Today's Extremes

State Highs State Lows

Community

WunderPhotos

Upload Photos

1,851,608 photos uploaded!

WunderBlogs® & News

Nearby

Air Quality

  Air Quality AQ Index Pollutant
Not available.

Snow Depth

Station Depth Elevation

Earthquake Activity

City Distance Mag. Time & Date
Minimum magnitude displayed is 2.5.

Coastal Water Temperatures

Place Temperature

Stations

Nearby Weather Stations

Station Location Temp. Windchill Dew Point Humidity Wind Precip. Elev Updated Type